sensor_id;sensor_type;location;lat;lon;timestamp;pressure;altitude;pressure_sealevel;temperature;humidity
49979;BME280;35869;50.990;6.962;2022-12-11T00:04:41;100905.06;;;0.74;100.00
49979;BME280;35869;50.990;6.962;2022-12-11T00:09:41;100912.75;;;0.67;100.00
49979;BME280;35869;50.990;6.962;2022-12-11T00:14:41;100907.63;;;0.67;100.00
49979;BME280;35869;50.990;6.962;2022-12-11T00:19:41;100911.88;;;0.72;100.00
49979;BME280;35869;50.990;6.962;2022-12-11T00:24:42;100911.03;;;0.75;100.00
49979;BME280;35869;50.990;6.962;2022-12-11T00:29:42;100909.31;;;0.78;100.00
49979;BME280;35869;50.990;6.962;2022-12-11T00:34:42;100905.91;;;0.69;100.00
49979;BME280;35869;50.990;6.962;2022-12-11T00:39:42;100901.66;;;0.71;100.00
49979;BME280;35869;50.990;6.962;2022-12-11T00:44:42;100908.47;;;0.72;100.00
49979;BME280;35869;50.990;6.962;2022-12-11T00:49:43;100901.66;;;0.77;100.00
49979;BME280;35869;50.990;6.962;2022-12-11T00:54:43;100899.06;;;0.80;100.00
49979;BME280;35869;50.990;6.962;2022-12-11T00:59:43;100895.66;;;0.81;100.00
49979;BME280;35869;50.990;6.962;2022-12-11T01:04:43;100893.97;;;0.80;100.00
49979;BME280;35869;50.990;6.962;2022-12-11T01:09:44;100885.44;;;0.84;100.00
49979;BME280;35869;50.990;6.962;2022-12-11T01:14:44;100887.97;;;0.86;100.00
49979;BME280;35869;50.990;6.962;2022-12-11T01:19:44;100898.25;;;0.83;100.00
49979;BME280;35869;50.990;6.962;2022-12-11T01:24:44;100904.19;;;0.83;100.00
49979;BME280;35869;50.990;6.962;2022-12-11T01:29:45;100913.56;;;0.86;100.00
49979;BME280;35869;50.990;6.962;2022-12-11T01:34:45;100897.38;;;0.76;100.00
49979;BME280;35869;50.990;6.962;2022-12-11T01:39:45;100895.66;;;0.84;100.00
49979;BME280;35869;50.990;6.962;2022-12-11T01:49:46;100893.09;;;0.79;100.00
49979;BME280;35869;50.990;6.962;2022-12-11T01:54:47;100890.56;;;0.78;100.00
49979;BME280;35869;50.990;6.962;2022-12-11T01:59:47;100889.69;;;0.70;100.00
49979;BME280;35869;50.990;6.962;2022-12-11T02:04:48;100888.84;;;0.74;100.00
49979;BME280;35869;50.990;6.962;2022-12-11T02:09:48;100881.16;;;0.75;100.00
49979;BME280;35869;50.990;6.962;2022-12-11T02:15:11;100878.59;;;0.75;100.00
49979;BME280;35869;50.990;6.962;2022-12-11T02:20:42;100876.91;;;0.73;100.00
49979;BME280;35869;50.990;6.962;2022-12-11T02:30:57;100870.09;;;0.69;100.00
49979;BME280;35869;50.990;6.962;2022-12-11T02:35:59;100871.78;;;0.70;100.00
49979;BME280;35869;50.990;6.962;2022-12-11T02:41:01;100872.66;;;0.64;100.00
49979;BME280;35869;50.990;6.962;2022-12-11T02:46:05;100864.13;;;0.73;100.00
49979;BME280;35869;50.990;6.962;2022-12-11T02:51:07;100870.09;;;0.70;100.00
49979;BME280;35869;50.990;6.962;2022-12-11T02:56:12;100868.41;;;0.72;100.00
49979;BME280;35869;50.990;6.962;2022-12-11T03:01:13;100858.16;;;0.69;100.00
49979;BME280;35869;50.990;6.962;2022-12-11T03:06:17;100861.56;;;0.70;100.00
49979;BME280;35869;50.990;6.962;2022-12-11T03:11:19;100859.88;;;0.72;100.00
49979;BME280;35869;50.990;6.962;2022-12-11T03:16:37;100853.91;;;0.67;100.00
49979;BME280;35869;50.990;6.962;2022-12-11T03:22:11;100856.44;;;0.70;100.00
49979;BME280;35869;50.990;6.962;2022-12-11T03:27:20;100866.69;;;0.71;100.00
49979;BME280;35869;50.990;6.962;2022-12-11T03:32:27;100870.94;;;0.69;100.00
49979;BME280;35869;50.990;6.962;2022-12-11T03:37:32;100871.78;;;0.70;100.00
49979;BME280;35869;50.990;6.962;2022-12-11T03:42:34;100865.84;;;0.72;100.00
49979;BME280;35869;50.990;6.962;2022-12-11T03:47:37;100865.84;;;0.66;100.00
49979;BME280;35869;50.990;6.962;2022-12-11T03:52:40;100859.84;;;0.70;100.00
49979;BME280;35869;50.990;6.962;2022-12-11T03:57:41;100855.59;;;0.68;100.00
49979;BME280;35869;50.990;6.962;2022-12-11T04:02:42;100863.28;;;0.68;100.00
49979;BME280;35869;50.990;6.962;2022-12-11T04:07:42;100848.78;;;0.74;100.00
49979;BME280;35869;50.990;6.962;2022-12-11T04:12:42;100853.91;;;0.64;100.00
49979;BME280;35869;50.990;6.962;2022-12-11T04:17:42;100847.94;;;0.71;100.00
49979;BME280;35869;50.990;6.962;2022-12-11T04:22:42;100844.53;;;0.69;100.00
49979;BME280;35869;50.990;6.962;2022-12-11T04:27:43;100844.53;;;0.67;100.00
49979;BME280;35869;50.990;6.962;2022-12-11T04:32:43;100840.25;;;0.68;100.00
49979;BME280;35869;50.990;6.962;2022-12-11T04:37:43;100841.97;;;0.66;100.00
49979;BME280;35869;50.990;6.962;2022-12-11T04:42:44;100838.56;;;0.64;100.00
49979;BME280;35869;50.990;6.962;2022-12-11T04:47:44;100838.56;;;0.64;100.00
49979;BME280;35869;50.990;6.962;2022-12-11T04:52:44;100839.41;;;0.69;100.00
49979;BME280;35869;50.990;6.962;2022-12-11T04:57:44;100834.28;;;0.69;100.00
49979;BME280;35869;50.990;6.962;2022-12-11T05:02:45;100836.00;;;0.68;100.00
49979;BME280;35869;50.990;6.962;2022-12-11T05:07:45;100829.16;;;0.69;100.00
49979;BME280;35869;50.990;6.962;2022-12-11T05:12:45;100829.16;;;0.70;100.00
49979;BME280;35869;50.990;6.962;2022-12-11T05:17:45;100824.94;;;0.66;100.00
49979;BME280;35869;50.990;6.962;2022-12-11T05:22:46;100824.03;;;0.70;100.00
49979;BME280;35869;50.990;6.962;2022-12-11T05:27:46;100827.47;;;0.72;100.00
49979;BME280;35869;50.990;6.962;2022-12-11T05:32:46;100818.91;;;0.81;100.00
49979;BME280;35869;50.990;6.962;2022-12-11T05:37:46;100819.78;;;0.72;100.00
49979;BME280;35869;50.990;6.962;2022-12-11T05:42:46;100805.25;;;0.88;100.00
49979;BME280;35869;50.990;6.962;2022-12-11T05:47:47;100810.41;;;0.79;100.00
49979;BME280;35869;50.990;6.962;2022-12-11T05:52:47;100808.69;;;0.78;100.00
49979;BME280;35869;50.990;6.962;2022-12-11T05:57:47;100796.78;;;0.77;100.00
49979;BME280;35869;50.990;6.962;2022-12-11T06:02:47;100804.44;;;0.75;100.00
49979;BME280;35869;50.990;6.962;2022-12-11T06:07:47;100814.63;;;0.82;100.00
49979;BME280;35869;50.990;6.962;2022-12-11T06:12:48;100807.84;;;0.76;100.00
49979;BME280;35869;50.990;6.962;2022-12-11T06:17:48;100800.16;;;0.79;100.00
49979;BME280;35869;50.990;6.962;2022-12-11T06:22:48;100800.16;;;0.76;100.00
49979;BME280;35869;50.990;6.962;2022-12-11T06:27:49;100799.31;;;0.78;100.00
49979;BME280;35869;50.990;6.962;2022-12-11T06:32:49;100799.28;;;0.82;100.00
49979;BME280;35869;50.990;6.962;2022-12-11T06:37:49;100802.72;;;0.74;100.00
49979;BME280;35869;50.990;6.962;2022-12-11T06:42:49;100803.56;;;0.84;100.00
49979;BME280;35869;50.990;6.962;2022-12-11T06:47:50;100801.03;;;0.83;100.00
49979;BME280;35869;50.990;6.962;2022-12-11T06:52:50;100802.69;;;0.82;100.00
49979;BME280;35869;50.990;6.962;2022-12-11T06:57:50;100807.84;;;0.79;100.00
49979;BME280;35869;50.990;6.962;2022-12-11T07:02:50;100810.34;;;0.91;100.00
49979;BME280;35869;50.990;6.962;2022-12-11T07:07:52;100810.38;;;0.85;100.00
49979;BME280;35869;50.990;6.962;2022-12-11T07:12:52;100813.81;;;0.78;100.00
49979;BME280;35869;50.990;6.962;2022-12-11T07:17:53;100822.31;;;0.80;100.00
49979;BME280;35869;50.990;6.962;2022-12-11T07:22:53;100824.03;;;0.75;100.00
49979;BME280;35869;50.990;6.962;2022-12-11T07:27:53;100821.47;;;0.70;100.00
49979;BME280;35869;50.990;6.962;2022-12-11T07:32:53;100824.91;;;0.74;100.00
49979;BME280;35869;50.990;6.962;2022-12-11T07:37:53;100826.63;;;0.72;100.00
49979;BME280;35869;50.990;6.962;2022-12-11T07:42:54;100828.31;;;0.68;100.00
49979;BME280;35869;50.990;6.962;2022-12-11T07:47:54;100818.94;;;0.69;100.00
49979;BME280;35869;50.990;6.962;2022-12-11T07:52:54;100820.59;;;0.82;100.00
49979;BME280;35869;50.990;6.962;2022-12-11T07:57:54;100823.19;;;0.80;100.00
49979;BME280;35869;50.990;6.962;2022-12-11T08:02:55;100818.94;;;0.78;100.00
49979;BME280;35869;50.990;6.962;2022-12-11T08:07:55;100810.38;;;0.76;100.00
49979;BME280;35869;50.990;6.962;2022-12-11T08:12:55;100814.63;;;0.88;100.00
49979;BME280;35869;50.990;6.962;2022-12-11T08:17:56;100817.19;;;0.86;100.00
49979;BME280;35869;50.990;6.962;2022-12-11T08:22:56;100818.91;;;0.84;100.00
49979;BME280;35869;50.990;6.962;2022-12-11T08:27:56;100814.63;;;0.86;100.00
49979;BME280;35869;50.990;6.962;2022-12-11T08:32:57;100819.75;;;0.91;100.00
49979;BME280;35869;50.990;6.962;2022-12-11T08:37:58;100817.19;;;0.86;100.00
49979;BME280;35869;50.990;6.962;2022-12-11T08:42:58;100814.66;;;0.85;100.00
49979;BME280;35869;50.990;6.962;2022-12-11T08:47:58;100806.13;;;0.89;100.00
49979;BME280;35869;50.990;6.962;2022-12-11T08:52:59;100808.69;;;0.84;100.00
49979;BME280;35869;50.990;6.962;2022-12-11T08:57:59;100806.13;;;0.79;100.00
49979;BME280;35869;50.990;6.962;2022-12-11T09:02:59;100804.38;;;0.92;100.00
49979;BME280;35869;50.990;6.962;2022-12-11T09:07:59;100810.38;;;0.85;100.00
49979;BME280;35869;50.990;6.962;2022-12-11T09:13:00;100809.50;;;0.86;100.00
49979;BME280;35869;50.990;6.962;2022-12-11T09:18:00;100815.50;;;0.88;100.00
49979;BME280;35869;50.990;6.962;2022-12-11T09:23:00;100817.19;;;0.89;100.00
49979;BME280;35869;50.990;6.962;2022-12-11T09:28:00;100814.63;;;0.91;100.00
49979;BME280;35869;50.990;6.962;2022-12-11T09:33:00;100810.34;;;0.97;100.00
49979;BME280;35869;50.990;6.962;2022-12-11T09:38:01;100812.09;;;0.89;100.00
49979;BME280;35869;50.990;6.962;2022-12-11T09:43:37;100818.91;;;0.90;100.00
49979;BME280;35869;50.990;6.962;2022-12-11T09:48:41;100818.03;;;0.94;100.00
49979;BME280;35869;50.990;6.962;2022-12-11T09:53:44;100808.63;;;1.01;100.00
49979;BME280;35869;50.990;6.962;2022-12-11T10:14:31;100802.66;;;1.02;100.00
49979;BME280;35869;50.990;6.962;2022-12-11T10:19:39;100799.22;;;1.06;100.00
49979;BME280;35869;50.990;6.962;2022-12-11T10:24:43;100786.41;;;1.04;100.00
49979;BME280;35869;50.990;6.962;2022-12-11T10:29:46;100788.97;;;1.09;100.00
49979;BME280;35869;50.990;6.962;2022-12-11T10:34:53;100781.31;;;1.06;100.00
49979;BME280;35869;50.990;6.962;2022-12-11T10:39:56;100776.16;;;1.14;100.00
49979;BME280;35869;50.990;6.962;2022-12-11T10:44:58;100779.56;;;1.13;100.00
49979;BME280;35869;50.990;6.962;2022-12-11T10:50:00;100769.28;;;1.16;100.00
49979;BME280;35869;50.990;6.962;2022-12-11T10:55:05;100761.66;;;1.13;100.00
49979;BME280;35869;50.990;6.962;2022-12-11T11:00:07;100758.22;;;1.15;100.00
49979;BME280;35869;50.990;6.962;2022-12-11T11:05:31;100749.66;;;1.19;100.00
49979;BME280;35869;50.990;6.962;2022-12-11T11:10:31;100751.38;;;1.20;100.00
49979;BME280;35869;50.990;6.962;2022-12-11T11:15:32;100747.91;;;1.23;100.00
49979;BME280;35869;50.990;6.962;2022-12-11T11:20:33;100745.38;;;1.23;100.00
49979;BME280;35869;50.990;6.962;2022-12-11T11:25:33;100744.50;;;1.30;100.00
49979;BME280;35869;50.990;6.962;2022-12-11T11:30:39;100745.31;;;1.32;100.00
49979;BME280;35869;50.990;6.962;2022-12-11T11:41:19;100726.50;;;1.39;100.00
49979;BME280;35869;50.990;6.962;2022-12-11T11:46:30;100719.66;;;1.41;100.00
49979;BME280;35869;50.990;6.962;2022-12-11T11:51:36;100721.31;;;1.48;100.00
49979;BME280;35869;50.990;6.962;2022-12-11T11:56:38;100716.22;;;1.45;100.00
49979;BME280;35869;50.990;6.962;2022-12-11T12:01:40;100717.06;;;1.46;100.00
49979;BME280;35869;50.990;6.962;2022-12-11T12:12:15;100717.06;;;1.46;100.00
49979;BME280;35869;50.990;6.962;2022-12-11T12:45:15;100686.25;;;1.59;100.00
49979;BME280;35869;50.990;6.962;2022-12-11T12:50:19;100688.81;;;1.56;100.00
49979;BME280;35869;50.990;6.962;2022-12-11T12:55:23;100684.56;;;1.51;100.00
49979;BME280;35869;50.990;6.962;2022-12-11T13:00:36;100681.97;;;1.60;100.00
49979;BME280;35869;50.990;6.962;2022-12-11T13:05:40;100677.59;;;1.71;100.00
49979;BME280;35869;50.990;6.962;2022-12-11T13:10:41;100680.13;;;1.74;100.00
49979;BME280;35869;50.990;6.962;2022-12-11T13:15:42;100685.19;;;1.82;100.00
49979;BME280;35869;50.990;6.962;2022-12-11T13:20:46;100677.47;;;1.83;100.00
49979;BME280;35869;50.990;6.962;2022-12-11T13:25:53;100674.88;;;1.88;100.00
49979;BME280;35869;50.990;6.962;2022-12-11T13:41:19;100679.13;;;1.91;100.00
49979;BME280;35869;50.990;6.962;2022-12-11T13:46:21;100693.59;;;1.93;100.00
49979;BME280;35869;50.990;6.962;2022-12-11T13:51:25;100692.69;;;1.99;100.00
49979;BME280;35869;50.990;6.962;2022-12-11T13:56:25;100689.28;;;2.01;100.00
49979;BME280;35869;50.990;6.962;2022-12-11T14:01:31;100702.13;;;2.00;100.00
49979;BME280;35869;50.990;6.962;2022-12-11T14:06:33;100695.34;;;1.94;100.00
49979;BME280;35869;50.990;6.962;2022-12-11T14:11:37;100696.09;;;1.99;100.00
49979;BME280;35869;50.990;6.962;2022-12-11T14:16:38;100701.25;;;2.01;100.00
49979;BME280;35869;50.990;6.962;2022-12-11T14:21:38;100702.97;;;2.00;100.00
49979;BME280;35869;50.990;6.962;2022-12-11T14:26:38;100699.53;;;1.98;100.00
49979;BME280;35869;50.990;6.962;2022-12-11T14:31:43;100701.25;;;1.98;100.00
49979;BME280;35869;50.990;6.962;2022-12-11T14:36:44;100708.06;;;1.99;100.00
49979;BME280;35869;50.990;6.962;2022-12-11T14:41:54;100709.81;;;2.00;100.00
49979;BME280;35869;50.990;6.962;2022-12-11T14:47:04;100714.94;;;2.00;100.00
49979;BME280;35869;50.990;6.962;2022-12-11T14:52:12;100713.16;;;2.03;100.00
49979;BME280;35869;50.990;6.962;2022-12-11T14:57:18;100716.63;;;1.98;100.00
49979;BME280;35869;50.990;6.962;2022-12-11T15:02:29;100723.47;;;2.00;100.00
49979;BME280;35869;50.990;6.962;2022-12-11T15:07:30;100723.47;;;1.99;100.00
49979;BME280;35869;50.990;6.962;2022-12-11T15:12:30;100727.75;;;1.98;100.00
49979;BME280;35869;50.990;6.962;2022-12-11T15:17:31;100719.22;;;1.96;100.00
49979;BME280;35869;50.990;6.962;2022-12-11T15:22:34;100718.38;;;1.96;100.00
49979;BME280;35869;50.990;6.962;2022-12-11T15:27:36;100726.03;;;2.00;100.00
49979;BME280;35869;50.990;6.962;2022-12-11T15:32:37;100730.31;;;1.97;100.00
49979;BME280;35869;50.990;6.962;2022-12-11T15:37:37;100723.53;;;1.94;100.00
49979;BME280;35869;50.990;6.962;2022-12-11T15:42:39;100726.16;;;1.85;100.00
49979;BME280;35869;50.990;6.962;2022-12-11T15:47:41;100732.97;;;1.89;100.00
49979;BME280;35869;50.990;6.962;2022-12-11T15:52:42;100738.06;;;1.91;100.00
49979;BME280;35869;50.990;6.962;2022-12-11T15:57:49;100738.91;;;1.91;100.00
49979;BME280;35869;50.990;6.962;2022-12-11T16:02:50;100738.94;;;1.90;100.00
49979;BME280;35869;50.990;6.962;2022-12-11T16:07:51;100739.81;;;1.89;100.00
49979;BME280;35869;50.990;6.962;2022-12-11T16:12:51;100734.72;;;1.82;100.00
49979;BME280;35869;50.990;6.962;2022-12-11T16:18:02;100736.41;;;1.85;100.00
49979;BME280;35869;50.990;6.962;2022-12-11T16:23:03;100737.28;;;1.81;100.00
49979;BME280;35869;50.990;6.962;2022-12-11T16:28:04;100733.91;;;1.79;100.00
49979;BME280;35869;50.990;6.962;2022-12-11T16:33:05;100731.34;;;1.77;100.00
49979;BME280;35869;50.990;6.962;2022-12-11T16:38:06;100729.63;;;1.78;100.00
49979;BME280;35869;50.990;6.962;2022-12-11T16:43:06;100738.25;;;1.71;100.00
49979;BME280;35869;50.990;6.962;2022-12-11T16:48:06;100737.38;;;1.70;100.00
49979;BME280;35869;50.990;6.962;2022-12-11T16:53:06;100724.56;;;1.72;100.00
49979;BME280;35869;50.990;6.962;2022-12-11T16:58:07;100732.25;;;1.69;100.00
49979;BME280;35869;50.990;6.962;2022-12-11T17:03:07;100727.16;;;1.67;100.00
49979;BME280;35869;50.990;6.962;2022-12-11T17:08:07;100720.28;;;1.69;100.00
49979;BME280;35869;50.990;6.962;2022-12-11T17:13:08;100725.47;;;1.66;100.00
49979;BME280;35869;50.990;6.962;2022-12-11T17:18:08;100717.75;;;1.68;100.00
49979;BME280;35869;50.990;6.962;2022-12-11T17:23:10;100718.56;;;1.73;100.00
49979;BME280;35869;50.990;6.962;2022-12-11T17:28:11;100729.75;;;1.63;100.00
49979;BME280;35869;50.990;6.962;2022-12-11T17:33:11;100717.75;;;1.68;100.00
49979;BME280;35869;50.990;6.962;2022-12-11T17:38:12;100727.16;;;1.64;100.00
49979;BME280;35869;50.990;6.962;2022-12-11T17:43:12;100719.50;;;1.66;100.00
49979;BME280;35869;50.990;6.962;2022-12-11T17:48:13;100714.38;;;1.66;100.00
49979;BME280;35869;50.990;6.962;2022-12-11T17:53:14;100724.63;;;1.63;100.00
49979;BME280;35869;50.990;6.962;2022-12-11T17:58:17;100726.34;;;1.60;100.00
49979;BME280;35869;50.990;6.962;2022-12-11T18:03:18;100728.13;;;1.54;100.00
49979;BME280;35869;50.990;6.962;2022-12-11T18:08:21;100720.38;;;1.60;100.00
49979;BME280;35869;50.990;6.962;2022-12-11T18:13:23;100717.84;;;1.58;100.00
49979;BME280;35869;50.990;6.962;2022-12-11T18:18:23;100722.13;;;1.55;100.00
49979;BME280;35869;50.990;6.962;2022-12-11T18:23:23;100729.78;;;1.56;100.00
49979;BME280;35869;50.990;6.962;2022-12-11T18:28:23;100732.38;;;1.53;100.00
49979;BME280;35869;50.990;6.962;2022-12-11T18:33:24;100722.19;;;1.47;100.00
49979;BME280;35869;50.990;6.962;2022-12-11T18:38:24;100731.56;;;1.48;100.00
49979;BME280;35869;50.990;6.962;2022-12-11T18:43:24;100736.66;;;1.54;100.00
49979;BME280;35869;50.990;6.962;2022-12-11T18:48:24;100730.69;;;1.46;100.00
49979;BME280;35869;50.990;6.962;2022-12-11T18:53:25;100731.56;;;1.48;100.00
49979;BME280;35869;50.990;6.962;2022-12-11T18:58:25;100735.03;;;1.41;100.00
49979;BME280;35869;50.990;6.962;2022-12-11T19:03:25;100729.91;;;1.41;100.00
49979;BME280;35869;50.990;6.962;2022-12-11T19:08:25;100719.66;;;1.41;100.00
49979;BME280;35869;50.990;6.962;2022-12-11T19:13:25;100720.50;;;1.43;100.00
49979;BME280;35869;50.990;6.962;2022-12-11T19:18:26;100725.63;;;1.40;100.00
49979;BME280;35869;50.990;6.962;2022-12-11T19:23:26;100731.63;;;1.39;100.00
49979;BME280;35869;50.990;6.962;2022-12-11T19:28:26;100733.31;;;1.40;100.00
49979;BME280;35869;50.990;6.962;2022-12-11T19:33:27;100727.28;;;1.46;100.00
49979;BME280;35869;50.990;6.962;2022-12-11T19:38:27;100735.88;;;1.40;100.00
49979;BME280;35869;50.990;6.962;2022-12-11T19:43:27;100728.19;;;1.43;100.00
49979;BME280;35869;50.990;6.962;2022-12-11T19:48:27;100722.25;;;1.38;100.00
49979;BME280;35869;50.990;6.962;2022-12-11T19:53:28;100720.53;;;1.42;100.00
49979;BME280;35869;50.990;6.962;2022-12-11T19:58:28;100722.22;;;1.43;100.00
49979;BME280;35869;50.990;6.962;2022-12-11T20:03:28;100725.63;;;1.40;100.00
49979;BME280;35869;50.990;6.962;2022-12-11T20:08:29;100722.22;;;1.41;100.00
49979;BME280;35869;50.990;6.962;2022-12-11T20:13:29;100724.78;;;1.38;100.00
49979;BME280;35869;50.990;6.962;2022-12-11T20:18:29;100723.16;;;1.31;100.00
49979;BME280;35869;50.990;6.962;2022-12-11T20:23:30;100719.69;;;1.38;100.00
49979;BME280;35869;50.990;6.962;2022-12-11T20:28:30;100721.38;;;1.39;100.00
49979;BME280;35869;50.990;6.962;2022-12-11T20:33:31;100720.53;;;1.37;100.00
49979;BME280;35869;50.990;6.962;2022-12-11T20:38:31;100721.34;;;1.41;100.00
49979;BME280;35869;50.990;6.962;2022-12-11T20:43:31;100726.56;;;1.30;100.00
49979;BME280;35869;50.990;6.962;2022-12-11T20:48:31;100713.72;;;1.33;100.00
49979;BME280;35869;50.990;6.962;2022-12-11T20:53:33;100713.66;;;1.41;100.00
49979;BME280;35869;50.990;6.962;2022-12-11T20:58:34;100720.53;;;1.37;100.00
49979;BME280;35869;50.990;6.962;2022-12-11T21:03:34;100712.88;;;1.34;100.00
49979;BME280;35869;50.990;6.962;2022-12-11T21:08:34;100719.72;;;1.35;100.00
49979;BME280;35869;50.990;6.962;2022-12-11T21:13:34;100727.41;;;1.32;100.00
49979;BME280;35869;50.990;6.962;2022-12-11T21:18:34;100724.00;;;1.30;100.00
49979;BME280;35869;50.990;6.962;2022-12-11T21:23:35;100719.72;;;1.35;100.00
49979;BME280;35869;50.990;6.962;2022-12-11T21:28:35;100718.03;;;1.28;100.00
49979;BME280;35869;50.990;6.962;2022-12-11T21:33:35;100719.75;;;1.30;100.00
49979;BME280;35869;50.990;6.962;2022-12-11T21:38:36;100716.34;;;1.25;100.00
49979;BME280;35869;50.990;6.962;2022-12-11T21:43:36;100712.13;;;1.18;100.00
49979;BME280;35869;50.990;6.962;2022-12-11T21:48:37;100724.97;;;1.14;100.00
49979;BME280;35869;50.990;6.962;2022-12-11T21:53:38;100718.13;;;1.13;100.00
49979;BME280;35869;50.990;6.962;2022-12-11T21:58:39;100724.09;;;1.18;100.00
49979;BME280;35869;50.990;6.962;2022-12-11T22:03:40;100725.00;;;1.08;100.00
49979;BME280;35869;50.990;6.962;2022-12-11T22:08:40;100736.94;;;1.02;100.00
49979;BME280;35869;50.990;6.962;2022-12-11T22:13:40;100726.75;;;0.93;100.00
49979;BME280;35869;50.990;6.962;2022-12-11T22:18:40;100740.44;;;0.89;100.00
49979;BME280;35869;50.990;6.962;2022-12-11T22:23:41;100742.09;;;0.93;100.00
49979;BME280;35869;50.990;6.962;2022-12-11T22:28:42;100754.09;;;0.80;100.00
49979;BME280;35869;50.990;6.962;2022-12-11T22:33:42;100754.97;;;0.79;100.00
49979;BME280;35869;50.990;6.962;2022-12-11T22:38:42;100758.41;;;0.68;100.00
49979;BME280;35869;50.990;6.962;2022-12-11T22:43:42;100757.59;;;0.66;100.00
49979;BME280;35869;50.990;6.962;2022-12-11T22:48:42;100765.25;;;0.58;100.00
49979;BME280;35869;50.990;6.962;2022-12-11T22:53:43;100758.41;;;0.63;100.00
49979;BME280;35869;50.990;6.962;2022-12-11T22:58:43;100757.59;;;0.57;100.00
49979;BME280;35869;50.990;6.962;2022-12-11T23:03:43;100755.88;;;0.62;100.00
49979;BME280;35869;50.990;6.962;2022-12-11T23:08:43;100757.59;;;0.66;100.00
49979;BME280;35869;50.990;6.962;2022-12-11T23:13:44;100760.97;;;0.66;100.00
49979;BME280;35869;50.990;6.962;2022-12-11T23:18:44;100765.28;;;0.53;100.00
49979;BME280;35869;50.990;6.962;2022-12-11T23:23:45;100767.78;;;0.64;100.00
49979;BME280;35869;50.990;6.962;2022-12-11T23:28:46;100767.00;;;0.55;100.00
49979;BME280;35869;50.990;6.962;2022-12-11T23:33:46;100769.50;;;0.62;100.00
49979;BME280;35869;50.990;6.962;2022-12-11T23:38:46;100764.38;;;0.68;100.00
49979;BME280;35869;50.990;6.962;2022-12-11T23:43:47;100772.91;;;0.63;100.00
49979;BME280;35869;50.990;6.962;2022-12-11T23:48:47;100772.03;;;0.74;100.00
49979;BME280;35869;50.990;6.962;2022-12-11T23:53:48;100766.91;;;0.79;100.00
49979;BME280;35869;50.990;6.962;2022-12-11T23:58:48;100772.88;;;0.79;100.00
